createdAt,value
2022-10-06T00:00:31.855Z,0
2022-10-06T00:01:32.197Z,0
2022-10-06T00:02:32.159Z,0
2022-10-06T00:03:31.869Z,0
2022-10-06T00:04:31.558Z,0
2022-10-06T00:05:31.835Z,0
2022-10-06T00:06:31.896Z,0
2022-10-06T00:07:32.398Z,0
2022-10-06T00:08:33.778Z,0
2022-10-06T00:09:32.624Z,0
2022-10-06T00:10:32.365Z,0
2022-10-06T00:11:32.093Z,0
2022-10-06T00:12:32.606Z,0
2022-10-06T00:13:32.332Z,0
2022-10-06T00:14:32.072Z,0
2022-10-06T00:15:32.345Z,0
2022-10-06T00:16:32.314Z,0
2022-10-06T00:17:32.561Z,0
2022-10-06T00:18:33.538Z,0
2022-10-06T00:19:32.633Z,0
2022-10-06T00:20:32.555Z,0
2022-10-06T00:21:32.554Z,0
2022-10-06T00:22:32.535Z,0
2022-10-06T00:23:32.263Z,0
2022-10-06T00:24:32.293Z,0
2022-10-06T00:25:32.478Z,0
2022-10-06T00:26:32.260Z,0
2022-10-06T00:27:32.210Z,0
2022-10-06T00:28:33.756Z,0
2022-10-06T00:29:32.462Z,0
2022-10-06T00:30:32.185Z,0
2022-10-06T00:31:32.204Z,0
2022-10-06T00:32:32.163Z,0
2022-10-06T00:33:32.147Z,0
2022-10-06T00:34:32.181Z,0
2022-10-06T00:35:32.452Z,0
2022-10-06T00:36:32.116Z,0
2022-10-06T00:37:32.389Z,0
2022-10-06T00:38:33.556Z,0
2022-10-06T00:39:31.845Z,0
2022-10-06T00:40:32.087Z,0
2022-10-06T00:41:32.330Z,0
2022-10-06T00:42:32.412Z,0
2022-10-06T00:43:32.063Z,0
2022-10-06T00:44:31.795Z,0
2022-10-06T00:45:31.555Z,0
2022-10-06T00:46:32.410Z,0
2022-10-06T00:47:32.037Z,0
2022-10-06T00:48:33.502Z,0
2022-10-06T00:49:32.275Z,0
2022-10-06T00:50:32.295Z,0
2022-10-06T00:51:32.294Z,0
2022-10-06T00:52:31.721Z,0
2022-10-06T00:53:31.998Z,0
2022-10-06T00:54:31.955Z,0
2022-10-06T00:55:31.681Z,0
2022-10-06T00:56:31.674Z,0
2022-10-06T00:57:32.176Z,0
2022-10-06T00:58:33.411Z,0
2022-10-06T00:59:31.653Z,0
2022-10-06T01:00:31.917Z,0
2022-10-06T01:01:32.441Z,0
2022-10-06T01:02:31.976Z,0
2022-10-06T01:03:31.865Z,0
2022-10-06T01:04:32.114Z,0
2022-10-06T01:05:31.609Z,0
2022-10-06T01:06:31.868Z,0
2022-10-06T01:07:32.132Z,0
2022-10-06T01:08:33.070Z,0
2022-10-06T01:09:31.830Z,0
2022-10-06T01:10:31.800Z,0
2022-10-06T01:11:32.050Z,0
2022-10-06T01:12:31.528Z,0
2022-10-06T01:13:31.782Z,0
2022-10-06T01:14:31.774Z,0
2022-10-06T01:15:31.726Z,0
2022-10-06T01:16:31.599Z,0
2022-10-06T01:17:31.478Z,0
2022-10-06T01:18:32.750Z,0
2022-10-06T01:19:31.712Z,0
2022-10-06T01:20:31.439Z,0
2022-10-06T01:21:31.432Z,0
2022-10-06T01:22:31.698Z,0
2022-10-06T01:23:31.726Z,0
2022-10-06T01:24:31.925Z,0
2022-10-06T01:25:31.675Z,0
2022-10-06T01:26:31.385Z,0
2022-10-06T01:27:31.384Z,0
2022-10-06T01:28:33.350Z,0
2022-10-06T01:29:31.354Z,0
2022-10-06T01:30:31.347Z,0
2022-10-06T01:31:31.642Z,0
2022-10-06T01:32:31.620Z,0
2022-10-06T01:34:03.665Z,0
2022-10-06T01:34:31.563Z,0
2022-10-06T01:35:31.821Z,0
2022-10-06T01:36:31.547Z,0
2022-10-06T01:37:31.787Z,0
2022-10-06T01:38:32.993Z,0
2022-10-06T01:39:31.866Z,0
2022-10-06T01:40:31.801Z,0
2022-10-06T01:41:31.651Z,0
2022-10-06T01:42:31.222Z,0
2022-10-06T01:43:31.264Z,0
2022-10-06T01:44:31.203Z,0
2022-10-06T01:45:31.472Z,0
2022-10-06T01:46:31.510Z,0
2022-10-06T01:47:31.443Z,0
2022-10-06T01:48:32.960Z,0
2022-10-06T01:49:31.682Z,0
2022-10-06T01:50:31.403Z,0
2022-10-06T01:51:31.403Z,0
2022-10-06T01:52:31.390Z,0
2022-10-06T01:53:31.125Z,0
2022-10-06T01:54:31.636Z,0
2022-10-06T01:55:31.423Z,0
2022-10-06T01:56:31.353Z,0
2022-10-06T01:57:31.706Z,0
2022-10-06T01:58:32.520Z,0
2022-10-06T01:59:31.067Z,0
2022-10-06T02:00:31.311Z,0
2022-10-06T02:01:31.567Z,0
2022-10-06T02:02:31.306Z,0
2022-10-06T02:03:31.280Z,0
2022-10-06T02:04:31.424Z,0
2022-10-06T02:05:31.006Z,0
2022-10-06T02:06:31.918Z,0
2022-10-06T02:07:30.974Z,0
2022-10-06T02:08:32.623Z,0
2022-10-06T02:09:30.705Z,0
2022-10-06T02:10:30.718Z,0
2022-10-06T02:11:31.502Z,0
2022-10-06T02:12:31.454Z,0
2022-10-06T02:13:31.201Z,0
2022-10-06T02:14:31.462Z,0
2022-10-06T02:15:30.897Z,0
2022-10-06T02:16:31.530Z,0
2022-10-06T02:17:31.391Z,0
2022-10-06T02:18:32.784Z,0
2022-10-06T02:19:31.374Z,0
2022-10-06T02:20:31.373Z,0
2022-10-06T02:21:31.102Z,0
2022-10-06T02:22:31.084Z,0
2022-10-06T02:23:30.826Z,0
2022-10-06T02:24:31.466Z,0
2022-10-06T02:25:31.329Z,0
2022-10-06T02:26:30.813Z,0
2022-10-06T02:27:31.338Z,0
2022-10-06T02:28:32.561Z,0
2022-10-06T02:29:30.804Z,0
2022-10-06T02:30:30.749Z,0
2022-10-06T02:31:31.542Z,0
2022-10-06T02:32:30.999Z,0
2022-10-06T02:33:30.719Z,0
2022-10-06T02:34:30.968Z,0
2022-10-06T02:35:31.215Z,0
2022-10-06T02:36:31.213Z,0
2022-10-06T02:37:30.975Z,0
2022-10-06T02:38:32.331Z,0
2022-10-06T02:39:30.912Z,0
2022-10-06T02:40:30.910Z,0
2022-10-06T02:41:30.384Z,0
2022-10-06T02:42:31.163Z,0
2022-10-06T02:43:30.928Z,0
2022-10-06T02:44:30.877Z,0
2022-10-06T02:45:30.895Z,0
2022-10-06T02:46:31.421Z,0
2022-10-06T02:47:30.571Z,0
2022-10-06T02:48:32.253Z,0
2022-10-06T02:49:30.825Z,0
2022-10-06T02:50:30.808Z,0
2022-10-06T02:51:30.541Z,0
2022-10-06T02:52:30.788Z,0
2022-10-06T02:53:30.796Z,0
2022-10-06T02:54:30.508Z,0
2022-10-06T02:55:30.755Z,0
2022-10-06T02:56:30.748Z,0
2022-10-06T02:57:31.013Z,0
2022-10-06T02:58:31.921Z,0
2022-10-06T02:59:30.797Z,0
2022-10-06T03:00:30.463Z,0
2022-10-06T03:01:30.740Z,0
2022-10-06T03:02:31.231Z,0
2022-10-06T03:03:30.165Z,0
2022-10-06T03:04:30.405Z,0
2022-10-06T03:05:30.654Z,0
2022-10-06T03:06:30.405Z,0
2022-10-06T03:07:30.633Z,0
2022-10-06T03:08:32.079Z,0
2022-10-06T03:09:30.877Z,0
2022-10-06T03:10:30.607Z,0
2022-10-06T03:11:30.356Z,0
2022-10-06T03:12:30.579Z,0
2022-10-06T03:13:30.059Z,0
2022-10-06T03:14:30.591Z,0
2022-10-06T03:15:30.633Z,0
2022-10-06T03:16:30.907Z,0
2022-10-06T03:17:30.828Z,0
2022-10-06T03:18:31.849Z,0
2022-10-06T03:19:30.261Z,0
2022-10-06T03:20:30.308Z,0
2022-10-06T03:21:30.582Z,0
2022-10-06T03:22:30.795Z,0
2022-10-06T03:23:30.287Z,0
2022-10-06T03:24:30.779Z,0
2022-10-06T03:25:30.009Z,0
2022-10-06T03:26:30.507Z,0
2022-10-06T03:27:30.487Z,0
2022-10-06T03:28:32.333Z,0
2022-10-06T03:29:30.479Z,0
2022-10-06T03:30:30.498Z,0
2022-10-06T03:31:31.004Z,0
2022-10-06T03:32:30.441Z,0
2022-10-06T03:49:44.818Z,0
2022-10-06T03:50:43.894Z,0
2022-10-06T03:51:44.634Z,0
2022-10-06T03:52:44.112Z,0
2022-10-06T03:53:44.363Z,0
2022-10-06T03:54:44.344Z,0
2022-10-06T03:55:43.809Z,0
2022-10-06T03:56:44.315Z,0
2022-10-06T03:57:44.050Z,0
2022-10-06T03:58:44.291Z,0
2022-10-06T03:59:44.278Z,0
2022-10-06T04:00:44.534Z,0
2022-10-06T04:01:44.744Z,0
2022-10-06T04:02:44.248Z,0
2022-10-06T04:03:43.968Z,0
2022-10-06T04:04:44.229Z,0
2022-10-06T04:05:44.572Z,0
2022-10-06T04:06:43.943Z,0
2022-10-06T04:07:43.928Z,0
2022-10-06T04:08:44.425Z,0
2022-10-06T04:09:43.914Z,0
2022-10-06T04:10:44.415Z,0
2022-10-06T04:11:44.146Z,0
2022-10-06T04:12:43.873Z,0
2022-10-06T04:13:43.872Z,0
2022-10-06T04:14:43.864Z,0
2022-10-06T04:15:43.845Z,0
2022-10-06T04:16:43.834Z,0
2022-10-06T04:17:43.830Z,0
2022-10-06T04:18:43.819Z,0
2022-10-06T04:19:43.548Z,0
2022-10-06T04:20:43.798Z,0
2022-10-06T04:21:44.471Z,0
2022-10-06T04:22:44.028Z,0
2022-10-06T04:23:44.014Z,0
2022-10-06T04:24:44.273Z,0
2022-10-06T04:25:43.994Z,0
2022-10-06T04:26:43.724Z,0
2022-10-06T04:27:43.728Z,0
2022-10-06T04:28:44.369Z,0
2022-10-06T04:29:44.210Z,0
2022-10-06T04:30:44.205Z,0
2022-10-06T04:31:44.702Z,0
2022-10-06T04:32:44.213Z,0
2022-10-06T04:33:43.911Z,0
2022-10-06T04:34:43.661Z,0
2022-10-06T04:35:44.151Z,0
2022-10-06T04:36:43.944Z,0
2022-10-06T04:37:44.226Z,0
2022-10-06T04:38:43.603Z,0
2022-10-06T04:39:43.591Z,0
2022-10-06T04:40:43.577Z,0
2022-10-06T04:41:43.830Z,0
2022-10-06T04:42:43.866Z,0
2022-10-06T04:43:43.553Z,0
2022-10-06T04:44:43.541Z,0
2022-10-06T04:45:44.040Z,0
2022-10-06T04:46:52.519Z,0
2022-10-06T04:47:43.513Z,0
2022-10-06T04:48:43.494Z,0
2022-10-06T04:49:44.040Z,0
2022-10-06T04:50:43.745Z,0
2022-10-06T04:51:43.726Z,4
2022-10-06T04:52:43.975Z,0
2022-10-06T04:53:44.058Z,4
2022-10-06T04:54:43.701Z,4
2022-10-06T04:55:43.434Z,4
2022-10-06T04:56:43.668Z,8
2022-10-06T04:57:43.405Z,8
2022-10-06T04:58:43.153Z,8
2022-10-06T04:59:43.649Z,8
2022-10-06T05:00:43.948Z,8
2022-10-06T05:01:43.638Z,8
2022-10-06T05:02:43.939Z,12
2022-10-06T05:03:43.867Z,12
2022-10-06T05:04:43.345Z,12
2022-10-06T05:05:43.350Z,12
2022-10-06T05:06:43.920Z,16
2022-10-06T05:07:43.569Z,16
2022-10-06T05:08:43.551Z,20
2022-10-06T05:09:43.926Z,20
2022-10-06T05:10:43.291Z,24
2022-10-06T05:11:43.272Z,24
2022-10-06T05:12:43.514Z,28
2022-10-06T05:13:43.566Z,32
2022-10-06T05:14:43.760Z,32
2022-10-06T05:15:43.735Z,36
2022-10-06T05:16:44.135Z,44
2022-10-06T05:17:43.216Z,40
2022-10-06T05:18:43.752Z,44
2022-10-06T05:19:43.220Z,56
2022-10-06T05:20:43.178Z,64
2022-10-06T05:21:43.177Z,72
2022-10-06T05:22:43.697Z,76
2022-10-06T05:23:43.180Z,76
2022-10-06T05:24:43.654Z,84
2022-10-06T05:25:43.740Z,100
2022-10-06T05:26:43.146Z,108
2022-10-06T05:27:43.135Z,116
2022-10-06T05:28:43.492Z,136
2022-10-06T05:29:43.366Z,172
2022-10-06T05:30:43.093Z,196
2022-10-06T05:31:44.050Z,200
2022-10-06T05:32:43.407Z,200
2022-10-06T05:33:43.649Z,208
2022-10-06T05:34:43.647Z,220
2022-10-06T05:35:43.377Z,260
2022-10-06T05:36:43.626Z,296
2022-10-06T05:37:43.690Z,340
2022-10-06T05:38:43.593Z,388
2022-10-06T05:39:43.334Z,420
2022-10-06T05:40:43.596Z,412
2022-10-06T05:41:43.984Z,388
2022-10-06T05:42:43.588Z,384
2022-10-06T05:43:43.587Z,388
2022-10-06T05:44:43.561Z,408
2022-10-06T05:45:43.845Z,440
2022-10-06T05:46:43.268Z,472
2022-10-06T05:47:43.583Z,532
2022-10-06T05:48:43.518Z,588
2022-10-06T05:49:43.239Z,640
2022-10-06T05:50:42.984Z,704
2022-10-06T05:51:43.210Z,752
2022-10-06T05:52:43.212Z,816
2022-10-06T05:53:43.470Z,888
2022-10-06T05:54:43.457Z,936
2022-10-06T05:55:42.939Z,1044
2022-10-06T05:56:43.176Z,1184
2022-10-06T05:57:43.784Z,1228
2022-10-06T05:58:43.157Z,1152
2022-10-06T05:59:43.394Z,1120
2022-10-06T06:00:43.659Z,1156
2022-10-06T06:01:43.735Z,1200
2022-10-06T06:02:43.693Z,1180
2022-10-06T06:03:42.879Z,1216
2022-10-06T06:04:43.362Z,1256
2022-10-06T06:05:43.087Z,1312
2022-10-06T06:06:43.108Z,1324
2022-10-06T06:07:43.329Z,1412
2022-10-06T06:08:43.067Z,1180
2022-10-06T06:09:43.047Z,916
2022-10-06T06:10:43.549Z,916
2022-10-06T06:11:43.027Z,844
2022-10-06T06:12:43.311Z,732
2022-10-06T06:13:43.663Z,744
2022-10-06T06:14:43.284Z,796
2022-10-06T06:15:43.000Z,720
2022-10-06T06:16:43.570Z,468
2022-10-06T06:17:43.235Z,576
2022-10-06T06:18:43.235Z,640
2022-10-06T06:19:43.231Z,548
2022-10-06T06:20:43.210Z,604
2022-10-06T06:21:43.189Z,612
2022-10-06T06:22:43.188Z,440
2022-10-06T06:23:42.920Z,344
2022-10-06T06:24:43.175Z,232
2022-10-06T06:25:42.904Z,248
2022-10-06T06:26:43.407Z,248
2022-10-06T06:27:43.402Z,228
2022-10-06T06:28:43.169Z,240
2022-10-06T06:29:43.544Z,240
2022-10-06T06:30:43.392Z,264
2022-10-06T06:31:43.197Z,304
2022-10-06T06:32:43.097Z,440
2022-10-06T06:33:43.109Z,560
2022-10-06T06:34:43.331Z,572
2022-10-06T06:35:43.081Z,752
2022-10-06T06:36:43.429Z,824
2022-10-06T06:37:43.087Z,724
2022-10-06T06:38:42.529Z,852
2022-10-06T06:39:43.283Z,720
2022-10-06T06:40:43.023Z,632
2022-10-06T06:41:43.027Z,632
2022-10-06T06:42:43.262Z,608
2022-10-06T06:43:43.253Z,664
2022-10-06T06:44:42.988Z,628
2022-10-06T06:45:43.585Z,596
2022-10-06T06:46:42.984Z,632
2022-10-06T06:47:42.972Z,620
2022-10-06T06:48:42.960Z,624
2022-10-06T06:49:43.197Z,704
2022-10-06T06:50:42.922Z,944
2022-10-06T06:51:42.942Z,1204
2022-10-06T06:52:42.411Z,888
2022-10-06T06:53:42.895Z,836
2022-10-06T06:54:43.152Z,768
2022-10-06T06:55:42.638Z,692
2022-10-06T06:56:42.891Z,712
2022-10-06T06:57:42.357Z,1028
2022-10-06T06:58:43.108Z,1720
2022-10-06T06:59:43.104Z,1872
2022-10-06T07:00:43.457Z,1592
2022-10-06T07:01:43.993Z,1820
2022-10-06T07:02:42.825Z,3184
2022-10-06T07:04:04.296Z,3128
2022-10-06T07:04:42.818Z,3280
2022-10-06T07:05:42.542Z,3992
2022-10-06T07:06:42.525Z,2536
2022-10-06T07:07:42.767Z,1296
2022-10-06T07:08:42.771Z,1184
2022-10-06T07:09:42.530Z,1172
2022-10-06T07:10:42.490Z,1084
2022-10-06T07:11:42.738Z,1116
2022-10-06T07:12:42.987Z,1024
2022-10-06T07:13:42.471Z,864
2022-10-06T07:14:43.383Z,576
2022-10-06T07:15:43.173Z,384
2022-10-06T07:16:42.743Z,264
2022-10-06T07:17:43.048Z,268
2022-10-06T07:18:42.935Z,248
2022-10-06T07:19:42.416Z,220
2022-10-06T07:20:42.684Z,200
2022-10-06T07:21:42.909Z,184
2022-10-06T07:22:42.409Z,248
2022-10-06T07:23:42.379Z,292
2022-10-06T07:24:42.892Z,336
2022-10-06T07:25:42.865Z,336
2022-10-06T07:26:42.626Z,392
2022-10-06T07:27:42.424Z,428
2022-10-06T07:28:43.109Z,632
2022-10-06T07:29:42.067Z,696
2022-10-06T07:30:47.258Z,696
2022-10-06T07:31:42.767Z,712
2022-10-06T07:32:42.060Z,712
2022-10-06T07:33:42.922Z,792
2022-10-06T07:35:42.514Z,1376
2022-10-06T07:36:42.519Z,1028
2022-10-06T07:37:42.261Z,908
2022-10-06T07:38:42.490Z,1028
2022-10-06T07:39:42.477Z,1040
2022-10-06T07:41:19.594Z,1276
2022-10-06T07:41:42.781Z,1416
2022-10-06T07:42:42.447Z,1892
2022-10-06T07:43:42.451Z,2184
2022-10-06T07:44:42.677Z,1832
2022-10-06T07:45:42.759Z,1204
2022-10-06T07:46:42.661Z,1016
2022-10-06T07:47:42.405Z,1184
2022-10-06T07:48:43.204Z,1180
2022-10-06T07:49:42.816Z,1256
2022-10-06T07:50:42.378Z,1032
2022-10-06T07:51:42.351Z,948
2022-10-06T07:52:42.361Z,960
2022-10-06T07:53:42.328Z,992
2022-10-06T07:54:42.066Z,1380
2022-10-06T07:55:42.578Z,2056
2022-10-06T07:56:42.312Z,2216
2022-10-06T07:57:42.204Z,1656
2022-10-06T07:58:42.275Z,2020
2022-10-06T07:59:42.263Z,2044
2022-10-06T08:00:42.279Z,1924
2022-10-06T08:01:42.486Z,2008
2022-10-06T08:02:43.327Z,2156
2022-10-06T08:03:42.482Z,2380
2022-10-06T08:04:42.215Z,2484
2022-10-06T08:05:42.639Z,2364
2022-10-06T08:06:42.451Z,2432
2022-10-06T08:07:42.178Z,2556
2022-10-06T08:08:42.424Z,2416
2022-10-06T08:09:42.426Z,2236
2022-10-06T08:10:41.637Z,2236
2022-10-06T08:11:41.875Z,2348
2022-10-06T08:12:41.996Z,2584
2022-10-06T08:13:41.869Z,2876
2022-10-06T08:14:42.103Z,2860
2022-10-06T08:15:42.470Z,2772
2022-10-06T08:16:42.349Z,3008
2022-10-06T08:17:42.330Z,3244
2022-10-06T08:18:53.561Z,3548
2022-10-06T08:19:42.288Z,3632
2022-10-06T08:20:42.022Z,3436
2022-10-06T08:21:42.390Z,3264
2022-10-06T08:22:42.265Z,3400
2022-10-06T08:23:41.741Z,3628
2022-10-06T08:25:13.113Z,3808
2022-10-06T08:25:41.968Z,3868
2022-10-06T08:26:41.712Z,3800
2022-10-06T08:27:42.515Z,3868
2022-10-06T08:28:42.631Z,4104
2022-10-06T08:29:41.683Z,4360
2022-10-06T08:30:41.659Z,4504
2022-10-06T08:31:42.017Z,4228
2022-10-06T08:32:41.655Z,3472
2022-10-06T08:33:41.891Z,3192
2022-10-06T08:34:42.143Z,3660
2022-10-06T08:35:41.864Z,3432
2022-10-06T08:36:48.209Z,2844
2022-10-06T08:37:42.246Z,2844
2022-10-06T08:38:41.577Z,3232
2022-10-06T08:39:41.813Z,3740
2022-10-06T08:40:41.815Z,4048
2022-10-06T08:41:41.555Z,3928
2022-10-06T08:42:42.037Z,3272
2022-10-06T08:43:41.517Z,3068
2022-10-06T08:44:42.015Z,3244
2022-10-06T08:45:45.558Z,3488
2022-10-06T08:46:41.245Z,3884
2022-10-06T08:47:41.736Z,4708
2022-10-06T08:48:41.731Z,4632
2022-10-06T08:49:41.467Z,4600
2022-10-06T08:50:41.958Z,4872
2022-10-06T08:51:41.951Z,4524
2022-10-06T08:52:41.693Z,4036
2022-10-06T08:53:42.037Z,4380
2022-10-06T08:54:41.654Z,4508
2022-10-06T08:55:41.647Z,4560
2022-10-06T08:56:41.387Z,4988
2022-10-06T08:57:41.412Z,5216
2022-10-06T08:58:42.311Z,4956
2022-10-06T08:59:41.367Z,4736
2022-10-06T09:00:41.859Z,4980
2022-10-06T09:01:42.066Z,5212
2022-10-06T09:02:42.142Z,5224
2022-10-06T09:03:41.324Z,5408
2022-10-06T09:04:41.302Z,5748
2022-10-06T09:05:41.545Z,5904
2022-10-06T09:06:41.047Z,5120
2022-10-06T09:07:41.290Z,5772
2022-10-06T09:08:41.263Z,6736
2022-10-06T09:09:42.300Z,7016
2022-10-06T09:10:41.671Z,7236
2022-10-06T09:11:41.407Z,7084
2022-10-06T09:12:41.926Z,6908
2022-10-06T09:13:41.901Z,6372
2022-10-06T09:14:41.901Z,5724
2022-10-06T09:15:42.106Z,5524
2022-10-06T09:16:42.242Z,5032
2022-10-06T09:17:41.863Z,5368
2022-10-06T09:19:14.683Z,7956
2022-10-06T09:19:41.581Z,8328
2022-10-06T09:20:42.097Z,7464
2022-10-06T09:21:41.817Z,6912
2022-10-06T09:22:41.622Z,6524
2022-10-06T09:23:41.798Z,6332
2022-10-06T09:24:47.454Z,6348
2022-10-06T09:25:42.138Z,6256
2022-10-06T09:26:42.059Z,5248
2022-10-06T09:27:41.775Z,5100
2022-10-06T09:28:42.209Z,6108
2022-10-06T09:29:41.751Z,7512
2022-10-06T09:30:41.497Z,8108
2022-10-06T09:31:42.175Z,7640
2022-10-06T09:32:41.468Z,7876
2022-10-06T09:33:41.714Z,8556
2022-10-06T09:34:41.448Z,8976
2022-10-06T09:35:41.448Z,8628
2022-10-06T09:36:41.218Z,7740
2022-10-06T09:37:41.667Z,7076
2022-10-06T09:38:41.672Z,7928
2022-10-06T09:39:41.958Z,8792
2022-10-06T09:40:41.687Z,8388
2022-10-06T09:41:41.990Z,7332
2022-10-06T09:42:41.892Z,6704
2022-10-06T09:43:41.626Z,7740
2022-10-06T09:44:41.622Z,8300
2022-10-06T09:45:41.865Z,8320
2022-10-06T09:46:41.096Z,7640
2022-10-06T09:47:41.648Z,6260
2022-10-06T09:48:41.589Z,6116
2022-10-06T09:49:41.577Z,7464
2022-10-06T09:50:41.317Z,6956
2022-10-06T09:51:41.818Z,7348
2022-10-06T09:52:41.596Z,8552
2022-10-06T09:53:44.376Z,8524
2022-10-06T09:54:41.277Z,8164
2022-10-06T09:55:41.790Z,7476
2022-10-06T09:56:41.352Z,7520
2022-10-06T09:57:41.875Z,6520
2022-10-06T09:58:41.506Z,5780
2022-10-06T09:59:46.896Z,6264
2022-10-06T10:00:41.805Z,7348
2022-10-06T10:01:41.235Z,8428
2022-10-06T10:02:41.607Z,8384
2022-10-06T10:03:47.850Z,6908
2022-10-06T10:04:41.465Z,5608
2022-10-06T10:05:41.712Z,5076
2022-10-06T10:06:41.446Z,5372
2022-10-06T10:07:41.432Z,5680
2022-10-06T10:08:42.202Z,5768
2022-10-06T10:09:41.422Z,5176
2022-10-06T10:10:41.735Z,5704
2022-10-06T10:11:41.418Z,5420
2022-10-06T10:12:41.423Z,5308
2022-10-06T10:13:41.719Z,5260
2022-10-06T10:14:41.381Z,4840
2022-10-06T10:15:41.660Z,4120
2022-10-06T10:16:41.701Z,3976
2022-10-06T10:17:41.613Z,4400
2022-10-06T10:18:41.099Z,3852
2022-10-06T10:19:41.088Z,4020
2022-10-06T10:20:41.463Z,3204
2022-10-06T10:21:41.350Z,2648
2022-10-06T10:22:41.326Z,2648
2022-10-06T10:23:41.586Z,2836
2022-10-06T10:24:41.558Z,3228
2022-10-06T10:25:41.041Z,3444
2022-10-06T10:26:41.551Z,4024
2022-10-06T10:27:41.283Z,4116
2022-10-06T10:28:41.573Z,3756
2022-10-06T10:29:41.581Z,3688
2022-10-06T10:30:41.508Z,3168
2022-10-06T10:31:41.484Z,2648
2022-10-06T10:32:41.003Z,2608
2022-10-06T10:33:46.018Z,2576
2022-10-06T10:34:41.473Z,2580
2022-10-06T10:35:41.219Z,2344
2022-10-06T10:36:41.227Z,3404
2022-10-06T10:37:41.195Z,4064
2022-10-06T10:38:41.238Z,4580
2022-10-06T10:39:40.929Z,5016
2022-10-06T10:40:41.174Z,5256
2022-10-06T10:41:41.415Z,5264
2022-10-06T10:42:40.910Z,5344
2022-10-06T10:43:41.406Z,4764
2022-10-06T10:44:40.903Z,4752
2022-10-06T10:45:41.458Z,5148
2022-10-06T10:46:41.252Z,5232
2022-10-06T10:47:41.120Z,4744
2022-10-06T10:48:40.867Z,4232
2022-10-06T10:49:40.848Z,3652
2022-10-06T10:50:41.363Z,3544
2022-10-06T10:51:40.831Z,3708
2022-10-06T10:52:41.091Z,3864
2022-10-06T10:53:47.357Z,4204
2022-10-06T10:54:41.325Z,4380
2022-10-06T10:55:41.318Z,4420
2022-10-06T10:56:41.306Z,5068
2022-10-06T10:57:41.144Z,5448
2022-10-06T10:58:40.777Z,6024
2022-10-06T10:59:41.028Z,7296
2022-10-06T11:00:41.583Z,7748
2022-10-06T11:01:41.599Z,7448
2022-10-06T11:02:41.002Z,6916
2022-10-06T11:03:41.009Z,6448
2022-10-06T11:04:40.989Z,5652
2022-10-06T11:05:40.725Z,4996
2022-10-06T11:06:40.987Z,4476
2022-10-06T11:07:41.238Z,3952
2022-10-06T11:08:40.958Z,3688
2022-10-06T11:09:40.962Z,3680
2022-10-06T11:10:40.700Z,3256
2022-10-06T11:11:40.682Z,3008
2022-10-06T11:12:40.929Z,2448
2022-10-06T11:13:40.942Z,3228
2022-10-06T11:14:41.179Z,3676
2022-10-06T11:15:40.398Z,4068
2022-10-06T11:16:41.347Z,3988
2022-10-06T11:17:41.222Z,3956
2022-10-06T11:18:40.633Z,3220
2022-10-06T11:19:40.649Z,2828
2022-10-06T11:20:40.617Z,2416
2022-10-06T11:21:40.609Z,2492
2022-10-06T11:22:40.894Z,2244
2022-10-06T11:23:40.881Z,2196
2022-10-06T11:24:40.852Z,2148
2022-10-06T11:25:42.293Z,2112
2022-10-06T11:26:41.091Z,2064
2022-10-06T11:27:40.883Z,2100
2022-10-06T11:28:41.395Z,2108
2022-10-06T11:29:40.811Z,2112
2022-10-06T11:30:40.795Z,2108
2022-10-06T11:31:41.194Z,2280
2022-10-06T11:32:40.815Z,2752
2022-10-06T11:33:41.190Z,3144
2022-10-06T11:34:41.021Z,3316
2022-10-06T11:35:40.829Z,3208
2022-10-06T11:36:40.522Z,3084
2022-10-06T11:37:40.496Z,2848
2022-10-06T11:38:40.483Z,2728
2022-10-06T11:39:40.745Z,2900
2022-10-06T11:40:40.476Z,3016
2022-10-06T11:41:40.460Z,3156
2022-10-06T11:42:41.805Z,3400
2022-10-06T11:43:41.545Z,3788
2022-10-06T11:44:41.270Z,3956
2022-10-06T11:45:41.510Z,3872
2022-10-06T11:46:47.537Z,3560
2022-10-06T11:47:43.171Z,3428
2022-10-06T11:48:41.756Z,3464
2022-10-06T11:49:41.844Z,3564
2022-10-06T11:50:41.476Z,3316
2022-10-06T11:51:41.468Z,3224
2022-10-06T11:52:41.472Z,3256
2022-10-06T11:53:41.724Z,3448
2022-10-06T11:54:41.443Z,3548
2022-10-06T11:55:41.448Z,3816
2022-10-06T11:56:41.193Z,4000
2022-10-06T11:57:41.428Z,3704
2022-10-06T11:58:50.033Z,3252
2022-10-06T11:59:41.156Z,3060
2022-10-06T12:00:41.671Z,2588
2022-10-06T12:01:41.751Z,2620
2022-10-06T12:02:41.723Z,2516
2022-10-06T12:03:41.417Z,2188
2022-10-06T12:04:41.963Z,2596
2022-10-06T12:06:03.379Z,2492
2022-10-06T12:06:42.199Z,2396
2022-10-06T12:07:41.946Z,1932
2022-10-06T12:08:41.948Z,2160
2022-10-06T12:09:44.595Z,2156
2022-10-06T12:10:42.183Z,2224
2022-10-06T12:11:41.675Z,2248
2022-10-06T12:12:42.167Z,1940
2022-10-06T12:17:22.313Z,2996
2022-10-06T12:17:32.984Z,3020
2022-10-06T12:18:32.596Z,2780
2022-10-06T12:19:32.900Z,2520
2022-10-06T12:20:32.817Z,2484
2022-10-06T12:21:32.899Z,2224
2022-10-06T12:22:32.303Z,2100
2022-10-06T12:23:32.306Z,2132
2022-10-06T12:24:32.544Z,2280
2022-10-06T12:25:32.537Z,2124
2022-10-06T12:26:32.297Z,1984
2022-10-06T12:27:33.195Z,1896
2022-10-06T12:28:32.767Z,1844
2022-10-06T12:29:32.494Z,1820
2022-10-06T12:30:32.425Z,1816
2022-10-06T12:31:32.458Z,1668
2022-10-06T12:32:32.495Z,1804
2022-10-06T12:33:32.213Z,1804
2022-10-06T12:34:32.467Z,1800
2022-10-06T12:35:32.496Z,1784
2022-10-06T12:36:32.214Z,1804
2022-10-06T12:37:32.794Z,1804
2022-10-06T12:38:32.681Z,1800
2022-10-06T12:39:32.183Z,1800
2022-10-06T12:40:32.676Z,1796
2022-10-06T12:41:32.407Z,1788
2022-10-06T12:42:32.149Z,1792
2022-10-06T12:43:32.391Z,1792
2022-10-06T12:44:32.403Z,1788
2022-10-06T12:45:32.434Z,1788
2022-10-06T12:46:32.489Z,1792
2022-10-06T12:47:32.400Z,1784
2022-10-06T12:48:31.852Z,1776
2022-10-06T12:49:32.344Z,1776
2022-10-06T12:50:32.114Z,1772
2022-10-06T12:52:32.077Z,1764
2022-10-06T12:53:32.672Z,1764
2022-10-06T12:54:32.323Z,1764
2022-10-06T12:55:32.720Z,1772
2022-10-06T12:56:33.111Z,1796
2022-10-06T12:57:32.547Z,1796
2022-10-06T12:58:32.596Z,1780
2022-10-06T12:59:32.549Z,1760
2022-10-06T13:00:33.308Z,1752
2022-10-06T13:01:32.165Z,1752
2022-10-06T13:02:31.989Z,1748
2022-10-06T13:03:32.508Z,1748
2022-10-06T13:04:32.505Z,1744
2022-10-06T13:05:32.227Z,1744
2022-10-06T13:06:31.974Z,1748
2022-10-06T13:07:31.989Z,1748
2022-10-06T13:08:32.227Z,1744
2022-10-06T13:09:32.546Z,1744
2022-10-06T13:10:32.303Z,1744
2022-10-06T13:11:32.210Z,1744
2022-10-06T13:12:32.175Z,1744
2022-10-06T13:13:31.909Z,1736
2022-10-06T13:14:32.413Z,1736
2022-10-06T13:15:32.794Z,1732
2022-10-06T13:16:32.723Z,1732
2022-10-06T13:17:31.885Z,1732
2022-10-06T13:18:31.870Z,1728
2022-10-06T13:19:32.130Z,1724
2022-10-06T13:20:32.120Z,1728
2022-10-06T13:21:32.162Z,1728
2022-10-06T13:22:32.355Z,1728
2022-10-06T13:23:32.138Z,1728
2022-10-06T13:24:32.339Z,1720
2022-10-06T13:25:32.557Z,1716
2022-10-06T13:26:31.812Z,1428
2022-10-06T13:27:32.070Z,1420
2022-10-06T13:28:32.101Z,1408
2022-10-06T13:29:32.071Z,1412
2022-10-06T13:30:36.347Z,1404
2022-10-06T13:31:32.094Z,1424
2022-10-06T13:32:31.776Z,1640
2022-10-06T13:33:31.773Z,1720
2022-10-06T13:34:31.758Z,1724
2022-10-06T13:35:31.743Z,1732
2022-10-06T13:36:32.271Z,1732
2022-10-06T13:37:32.249Z,1732
2022-10-06T13:38:31.981Z,1728
2022-10-06T13:39:32.179Z,1720
2022-10-06T13:40:51.252Z,1720
2022-10-06T13:41:32.252Z,1720
2022-10-06T13:42:31.945Z,1716
2022-10-06T13:43:34.132Z,1716
2022-10-06T13:44:31.941Z,1716
2022-10-06T13:45:31.669Z,1716
2022-10-06T13:46:32.320Z,1592
2022-10-06T13:47:31.907Z,1712
2022-10-06T13:48:32.157Z,1708
2022-10-06T13:49:32.160Z,1716
2022-10-06T13:50:33.240Z,1792
2022-10-06T13:51:32.894Z,1820
2022-10-06T13:52:32.875Z,1780
2022-10-06T13:53:32.355Z,1760
2022-10-06T13:54:33.125Z,1744
2022-10-06T13:55:32.616Z,1736
2022-10-06T13:56:34.316Z,1716
2022-10-06T13:57:32.931Z,1604
2022-10-06T13:58:33.083Z,1544
2022-10-06T13:59:32.822Z,1708
2022-10-06T14:00:32.558Z,1704
2022-10-06T14:01:32.860Z,1700
2022-10-06T14:02:32.694Z,1700
2022-10-06T14:03:33.163Z,1700
2022-10-06T14:04:37.474Z,1696
2022-10-06T14:05:33.079Z,1692
2022-10-06T14:06:32.527Z,1684
2022-10-06T14:07:32.782Z,1684
2022-10-06T14:08:32.502Z,1688
2022-10-06T14:09:32.487Z,1684
2022-10-06T14:10:32.763Z,1680
2022-10-06T14:11:32.497Z,1676
2022-10-06T14:12:33.598Z,1676
2022-10-06T14:13:33.322Z,1680